createdAt,value
2018-12-30T00:02:03.697Z,20.17
2018-12-30T00:07:01.265Z,19.37
2018-12-30T00:12:01.542Z,19.73
2018-12-30T00:16:57.579Z,17.90
2018-12-30T00:21:53.771Z,18.50
2018-12-30T00:26:52.835Z,20.03
2018-12-30T00:31:55.608Z,18.62
2018-12-30T00:36:51.560Z,17.10
2018-12-30T00:41:49.496Z,19.13
2018-12-30T00:46:54.787Z,18.30
2018-12-30T00:51:50.668Z,17.80
2018-12-30T00:56:46.640Z,18.07
2018-12-30T01:02:02.074Z,18.00
2018-12-30T01:06:57.875Z,17.73
2018-12-30T01:11:53.933Z,18.77
2018-12-30T01:16:49.821Z,18.53
2018-12-30T01:21:51.872Z,17.87
2018-12-30T01:26:50.836Z,18.33
2018-12-30T01:31:46.812Z,17.93
2018-12-30T01:36:53.576Z,20.30
2018-12-30T01:41:52.285Z,18.60
2018-12-30T01:46:48.081Z,17.63
2018-12-30T01:51:43.984Z,19.10
2018-12-30T01:56:40.220Z,18.37
2018-12-30T02:01:36.066Z,18.07
2018-12-30T02:06:31.863Z,18.40
2018-12-30T02:11:33.902Z,17.57
2018-12-30T02:16:29.779Z,18.53
2018-12-30T02:21:26.044Z,18.60
2018-12-30T02:26:23.743Z,17.53
2018-12-30T02:31:19.631Z,18.47
2018-12-30T02:36:15.845Z,18.53
2018-12-30T02:41:25.380Z,19.23
2018-12-30T02:46:29.698Z,17.10
2018-12-30T02:51:25.489Z,18.00
2018-12-30T02:56:21.310Z,17.40
2018-12-30T03:01:21.100Z,18.03
2018-12-30T03:06:22.480Z,18.53
2018-12-30T03:11:21.321Z,17.70
2018-12-30T03:16:18.902Z,17.40
2018-12-30T03:21:27.123Z,18.37
2018-12-30T06:08:05.744Z,13.67
2018-12-30T06:13:00.027Z,14.27
2018-12-30T06:17:55.828Z,13.07
2018-12-30T06:22:51.613Z,13.37
2018-12-30T06:27:47.408Z,13.30
2018-12-30T06:32:43.171Z,12.30
2018-12-30T06:37:50.573Z,11.17
2018-12-30T06:42:46.668Z,10.40
2018-12-30T06:47:42.994Z,10.93
2018-12-30T06:52:43.127Z,10.30
2018-12-30T06:57:39.079Z,10.90
2018-12-30T07:02:35.051Z,11.17
2018-12-30T07:07:50.948Z,10.17
2018-12-30T07:12:38.678Z,11.63
2018-12-30T07:17:34.905Z,10.87
2018-12-30T07:22:31.564Z,10.80
2018-12-30T07:27:30.985Z,10.43
2018-12-30T07:32:27.400Z,9.57
2018-12-30T07:37:25.020Z,9.70
2018-12-30T07:42:27.439Z,9.47
2018-12-30T07:49:03.326Z,10.20
2018-12-30T07:54:37.933Z,9.27
2018-12-30T07:59:46.809Z,9.90
2018-12-30T08:10:05.069Z,8.97
2018-12-30T08:15:00.906Z,9.27
2018-12-30T08:19:56.776Z,9.87
2018-12-30T08:24:52.617Z,8.37
2018-12-30T08:29:48.501Z,8.40
2018-12-30T08:34:49.012Z,9.17
2018-12-30T08:39:52.696Z,8.57
2018-12-30T09:02:51.377Z,7.50
2018-12-30T09:07:48.351Z,7.53
2018-12-30T09:12:45.388Z,8.47
2018-12-30T09:17:42.850Z,7.30
2018-12-30T09:22:44.912Z,7.67
2018-12-30T09:27:43.042Z,6.83
2018-12-30T09:32:59.164Z,7.13
2018-12-30T09:38:14.781Z,6.43
2018-12-30T09:43:10.553Z,7.10
2018-12-30T09:48:06.372Z,7.43
2018-12-30T09:53:02.317Z,6.40
2018-12-30T09:58:01.383Z,5.53
2018-12-30T10:02:57.379Z,6.63
2018-12-30T10:07:53.318Z,6.80
2018-12-30T10:12:49.236Z,6.83
2018-12-30T10:17:45.731Z,6.47
2018-12-30T10:22:42.783Z,7.50
2018-12-30T10:27:38.837Z,7.03
2018-12-30T10:32:35.103Z,7.07
2018-12-30T10:37:30.927Z,7.20
2018-12-30T10:42:27.317Z,7.50
2018-12-30T10:47:23.254Z,7.47
2018-12-30T10:52:19.604Z,7.17
2018-12-30T10:57:15.474Z,8.20
2018-12-30T11:02:11.337Z,7.47
2018-12-30T11:07:07.268Z,7.57
2018-12-30T11:12:03.046Z,7.70
2018-12-30T11:16:58.985Z,8.03
2018-12-30T11:21:54.900Z,7.50
2018-12-30T11:26:51.155Z,7.33
2018-12-30T11:31:47.209Z,7.57
2018-12-30T11:36:43.340Z,7.93
2018-12-30T11:41:39.170Z,8.17
2018-12-30T11:46:35.129Z,7.50
2018-12-30T11:51:31.110Z,7.27
2018-12-30T11:56:27.046Z,7.40
2018-12-30T12:01:23.120Z,7.50
2018-12-30T12:06:18.967Z,7.03
2018-12-30T12:11:15.028Z,7.43
2018-12-30T12:16:11.773Z,7.20
2018-12-30T12:21:07.882Z,7.33
2018-12-30T12:26:03.785Z,8.97
2018-12-30T12:30:59.765Z,8.00
2018-12-30T12:35:55.767Z,7.90
2018-12-30T12:40:51.599Z,9.90
2018-12-30T12:45:47.431Z,9.77
2018-12-30T12:50:43.343Z,10.30
2018-12-30T12:55:39.503Z,10.83
2018-12-30T13:00:35.569Z,11.50
2018-12-30T13:05:31.415Z,12.30
2018-12-30T13:10:27.408Z,13.47
2018-12-30T13:15:23.281Z,12.70
2018-12-30T13:20:19.139Z,12.07
2018-12-30T13:25:15.065Z,11.90
2018-12-30T13:30:11.155Z,11.37
2018-12-30T13:35:07.467Z,11.27
2018-12-30T13:40:03.430Z,11.33
2018-12-30T13:44:59.289Z,11.33
2018-12-30T13:49:55.159Z,10.47
2018-12-30T13:54:50.966Z,10.97
2018-12-30T13:59:46.772Z,11.33
2018-12-30T14:04:42.693Z,10.90
2018-12-30T14:09:38.507Z,10.70
2018-12-30T14:14:34.404Z,10.37
2018-12-30T14:19:30.245Z,10.23
2018-12-30T14:24:26.180Z,9.37
2018-12-30T14:29:24.912Z,9.07
2018-12-30T14:34:20.766Z,9.13
2018-12-30T14:39:16.696Z,9.50
2018-12-30T14:44:12.520Z,9.00
2018-12-30T14:49:08.454Z,9.03
2018-12-30T14:54:15.414Z,9.57
2018-12-30T14:59:11.454Z,9.40
2018-12-30T15:04:07.317Z,9.47
2018-12-30T15:09:05.744Z,9.47
2018-12-30T15:14:01.640Z,10.33
2018-12-30T15:18:57.542Z,9.37
2018-12-30T15:23:53.517Z,9.83
2018-12-30T15:28:49.503Z,9.23
2018-12-30T15:33:45.416Z,10.53
2018-12-30T15:38:41.279Z,8.70
2018-12-30T15:43:37.169Z,10.93
2018-12-30T15:48:33.118Z,9.73
2018-12-30T15:53:29.056Z,10.93
2018-12-30T15:58:26.491Z,11.07
2018-12-30T16:03:30.927Z,10.30
2018-12-30T16:08:26.799Z,10.60
2018-12-30T16:13:22.653Z,9.83
2018-12-30T16:18:18.591Z,13.50
2018-12-30T16:23:14.523Z,15.77
2018-12-30T16:28:10.365Z,11.93
2018-12-30T16:33:06.155Z,11.50
2018-12-30T16:38:01.978Z,11.57
2018-12-30T16:42:58.190Z,12.40
2018-12-30T16:47:54.223Z,11.83
2018-12-30T16:52:50.155Z,17.73
2018-12-30T16:57:47.326Z,14.50
2018-12-30T17:02:43.233Z,13.33
2018-12-30T17:07:39.185Z,14.20
2018-12-30T17:12:35.041Z,13.47
2018-12-30T17:17:31.026Z,12.87
2018-12-30T17:22:26.937Z,14.70
2018-12-30T17:27:22.965Z,13.77
2018-12-30T17:32:19.010Z,12.83
2018-12-30T17:37:15.132Z,11.97
2018-12-30T17:42:11.369Z,13.83
2018-12-30T17:47:07.552Z,13.10
2018-12-30T18:11:06.158Z,13.97
2018-12-30T18:16:02.111Z,16.47
2018-12-30T18:20:58.056Z,15.47
2018-12-30T18:25:58.635Z,14.03
2018-12-30T18:30:51.598Z,11.63
2018-12-30T18:35:48.382Z,13.17
2018-12-30T18:40:44.142Z,14.53
2018-12-30T18:45:39.887Z,12.37
2018-12-30T18:50:35.644Z,13.23
2018-12-30T18:55:31.415Z,13.50
2018-12-30T19:00:27.347Z,13.70
2018-12-30T19:05:23.234Z,17.57
2018-12-30T19:10:19.652Z,13.00
2018-12-30T19:15:15.496Z,14.13
2018-12-30T19:20:11.375Z,17.27
2018-12-30T19:25:07.816Z,13.60
2018-12-30T19:30:03.639Z,11.03
2018-12-30T19:34:59.708Z,11.73
2018-12-30T19:39:55.543Z,11.73
2018-12-30T19:44:51.418Z,11.67
2018-12-30T19:49:47.361Z,10.73
2018-12-30T19:54:43.207Z,11.30
2018-12-30T19:59:39.072Z,11.67
2018-12-30T20:04:40.558Z,10.03
2018-12-30T20:09:32.500Z,11.57
2018-12-30T20:14:28.291Z,11.57
2018-12-30T20:19:24.121Z,11.63
2018-12-30T20:24:19.959Z,17.73
2018-12-30T20:29:15.860Z,30.70
2018-12-30T20:34:11.687Z,16.73
2018-12-30T20:39:09.542Z,12.77
2018-12-30T20:44:05.331Z,12.30
2018-12-30T20:49:01.158Z,12.97
2018-12-30T20:53:57.001Z,11.60
2018-12-30T20:58:52.860Z,12.20
2018-12-30T21:03:48.796Z,11.17
2018-12-30T21:08:44.845Z,11.77
2018-12-30T21:13:40.816Z,11.93
2018-12-30T21:18:37.631Z,10.67
2018-12-30T21:23:33.495Z,11.87
2018-12-30T21:28:29.301Z,26.03
2018-12-30T21:33:25.107Z,22.77
2018-12-30T21:38:20.901Z,15.30
2018-12-30T21:43:16.760Z,11.97
2018-12-30T21:48:12.644Z,11.70
2018-12-30T21:53:08.543Z,12.43
2018-12-30T21:58:04.834Z,13.20
2018-12-30T22:03:02.227Z,11.90
2018-12-30T22:07:58.082Z,11.90
2018-12-30T22:12:53.888Z,13.30
2018-12-30T22:17:49.811Z,12.20
2018-12-30T22:22:45.632Z,12.77
2018-12-30T22:27:41.466Z,12.80
2018-12-30T22:32:38.789Z,12.20
2018-12-30T22:37:34.712Z,14.00
2018-12-30T22:42:32.866Z,12.90
2018-12-30T22:47:28.255Z,12.67
2018-12-30T22:52:24.118Z,13.93
2018-12-30T22:57:19.921Z,13.53
2018-12-30T23:02:47.786Z,13.23
2018-12-30T23:07:35.186Z,13.80
2018-12-30T23:12:31.105Z,13.90
2018-12-30T23:17:27.024Z,13.50
2018-12-30T23:22:22.914Z,14.27
2018-12-30T23:27:21.761Z,14.20
2018-12-30T23:32:17.658Z,14.20
2018-12-30T23:37:30.857Z,15.33
2018-12-30T23:42:26.923Z,15.53
2018-12-30T23:47:22.789Z,16.47
2018-12-30T23:52:18.578Z,16.57
2018-12-30T23:57:14.337Z,15.67
